Terminal Aerodrome Forecast
Issued by NWS Goodland, KS

Home | Current Version | Previous Version | Text Only | Print | Product List | Glossary On
Versions: 1 2 3 4 5 6 7 8 9 10 11 12 13 14 15 16
000
FTUS43 KGLD 171100
TAFGLD
TAF
KGLD 171140Z 1712/1812 10006KT 6SM BR OVC005
     FM171600 16011KT P6SM SCT015 BKN035
     FM171900 18017G25KT P6SM FEW060 SCT200
     FM180100 17013KT P6SM FEW100
     FM180600 18015G23KT P6SM SCT200=

USA.gov is the U.S. government's official web portal to all federal, state and local government web resources and services.